createdAt,value
2019-06-27T00:01:34.184Z,22.35
2019-06-27T00:03:36.345Z,22.29
2019-06-27T00:05:37.755Z,22.18
2019-06-27T00:07:39.106Z,22.06
2019-06-27T00:09:40.470Z,21.88
2019-06-27T00:11:41.861Z,21.74
2019-06-27T00:13:43.225Z,21.61
2019-06-27T00:15:44.632Z,21.61
2019-06-27T00:17:46.042Z,21.59
2019-06-27T00:19:47.414Z,21.48
2019-06-27T00:21:48.867Z,21.41
2019-06-27T00:23:50.249Z,21.32
2019-06-27T00:25:51.638Z,21.34
2019-06-27T00:27:53.002Z,21.15
2019-06-27T00:29:54.415Z,21.13
2019-06-27T00:31:55.774Z,21.09
2019-06-27T00:33:57.738Z,21.00
2019-06-27T00:35:59.151Z,20.81
2019-06-27T00:38:00.520Z,20.86
2019-06-27T00:40:04.618Z,20.71
2019-06-27T00:42:05.978Z,20.69
2019-06-27T00:44:07.340Z,20.37
2019-06-27T00:46:08.740Z,20.42
2019-06-27T00:48:10.103Z,20.23
2019-06-27T00:50:12.949Z,20.23
2019-06-27T00:52:14.355Z,20.07
2019-06-27T00:54:15.774Z,20.02
2019-06-27T00:56:17.198Z,19.96
2019-06-27T00:58:18.669Z,20.11
2019-06-27T01:00:20.026Z,19.96
2019-06-27T01:02:21.814Z,19.91
2019-06-27T01:04:23.315Z,19.86
2019-06-27T01:06:24.762Z,19.83
2019-06-27T01:08:26.147Z,19.78
2019-06-27T01:10:27.556Z,19.78
2019-06-27T01:12:28.929Z,19.83
2019-06-27T01:14:30.293Z,19.79
2019-06-27T01:16:31.893Z,19.75
2019-06-27T01:18:33.271Z,19.61
2019-06-27T01:20:34.695Z,19.66
2019-06-27T01:22:36.042Z,19.61
2019-06-27T01:24:37.410Z,19.55
2019-06-27T01:26:38.828Z,19.66
2019-06-27T01:28:40.284Z,19.41
2019-06-27T01:30:41.648Z,19.55
2019-06-27T01:32:43.059Z,19.42
2019-06-27T01:34:44.423Z,19.36
2019-06-27T01:36:45.805Z,19.25
2019-06-27T01:38:47.197Z,19.26
2019-06-27T01:40:48.657Z,19.25
2019-06-27T01:42:50.073Z,19.20
2019-06-27T01:44:53.432Z,19.17
2019-06-27T01:46:54.794Z,19.15
2019-06-27T01:48:56.152Z,19.03
2019-06-27T01:50:57.537Z,18.98
2019-06-27T01:52:58.896Z,19.04
2019-06-27T01:55:00.254Z,19.09
2019-06-27T01:57:01.651Z,19.18
2019-06-27T01:59:03.016Z,19.15
2019-06-27T02:01:04.414Z,19.06
2019-06-27T02:03:06.013Z,19.24
2019-06-27T02:05:07.606Z,19.13
2019-06-27T02:07:09.083Z,19.22
2019-06-27T02:09:10.444Z,19.21
2019-06-27T02:11:11.837Z,19.14
2019-06-27T02:13:13.222Z,19.26
2019-06-27T02:15:15.576Z,19.25
2019-06-27T02:17:17.090Z,19.08
2019-06-27T02:19:18.497Z,19.13
2019-06-27T02:21:19.841Z,19.25
2019-06-27T02:23:21.206Z,19.29
2019-06-27T02:25:22.898Z,19.33
2019-06-27T02:27:24.254Z,19.24
2019-06-27T02:29:25.650Z,19.36
2019-06-27T02:31:27.085Z,19.51
2019-06-27T02:33:28.476Z,19.44
2019-06-27T02:35:29.865Z,19.50
2019-06-27T02:37:31.305Z,19.38
2019-06-27T02:39:32.695Z,19.27
2019-06-27T02:41:34.243Z,19.45
2019-06-27T02:43:35.672Z,19.47
2019-06-27T02:45:37.069Z,19.49
2019-06-27T02:47:38.457Z,19.36
2019-06-27T02:49:39.962Z,19.47
2019-06-27T02:51:41.371Z,19.31
2019-06-27T02:53:42.748Z,19.22
2019-06-27T02:55:44.190Z,19.30
2019-06-27T02:57:45.581Z,19.22
2019-06-27T02:59:47.006Z,19.26
2019-06-27T03:01:48.502Z,19.30
2019-06-27T03:03:49.934Z,19.21
2019-06-27T03:05:51.420Z,19.00
2019-06-27T03:07:52.814Z,19.08
2019-06-27T03:09:54.251Z,19.06
2019-06-27T03:11:59.944Z,19.06
2019-06-27T03:13:58.947Z,18.88
2019-06-27T03:16:00.479Z,18.85
2019-06-27T03:18:01.871Z,18.78
2019-06-27T03:20:06.989Z,18.72
2019-06-27T03:22:08.373Z,18.73
2019-06-27T03:24:09.811Z,18.67
2019-06-27T03:26:11.199Z,18.52
2019-06-27T03:28:12.587Z,18.44
2019-06-27T03:30:14.318Z,18.38
2019-06-27T03:32:15.712Z,18.33
2019-06-27T03:34:17.245Z,18.28
2019-06-27T03:36:18.665Z,18.09
2019-06-27T03:38:20.260Z,18.18
2019-06-27T03:40:21.798Z,18.10
2019-06-27T03:42:23.270Z,18.08
2019-06-27T03:44:24.656Z,18.08
2019-06-27T03:46:26.102Z,17.93
2019-06-27T03:48:27.588Z,18.08
2019-06-27T03:50:28.991Z,18.11
2019-06-27T03:52:30.438Z,18.15
2019-06-27T03:54:31.820Z,18.21
2019-06-27T03:56:33.229Z,18.06
2019-06-27T03:58:34.646Z,18.14
2019-06-27T04:00:36.785Z,18.11
2019-06-27T04:02:38.742Z,18.14
2019-06-27T04:04:40.665Z,18.29
2019-06-27T04:06:42.381Z,18.30
2019-06-27T04:08:44.872Z,18.28
2019-06-27T04:10:47.600Z,18.25
2019-06-27T04:12:49.401Z,18.10
2019-06-27T04:14:51.140Z,18.11
2019-06-27T04:16:52.819Z,18.15
2019-06-27T04:18:54.515Z,17.99
2019-06-27T04:20:56.329Z,18.00
2019-06-27T04:22:58.048Z,17.87
2019-06-27T04:24:59.890Z,17.74
2019-06-27T04:27:01.768Z,17.79
2019-06-27T04:29:03.602Z,17.70
2019-06-27T04:31:05.393Z,17.69
2019-06-27T04:33:07.225Z,17.72
2019-06-27T04:35:09.407Z,17.90
2019-06-27T04:37:11.285Z,17.92
2019-06-27T04:39:13.032Z,17.97
2019-06-27T04:41:14.818Z,18.05
2019-06-27T04:43:16.670Z,17.99
2019-06-27T04:45:18.487Z,18.11
2019-06-27T04:47:20.333Z,18.03
2019-06-27T04:49:22.201Z,18.12
2019-06-27T04:51:24.052Z,18.03
2019-06-27T04:53:25.838Z,18.17
2019-06-27T04:55:27.560Z,18.29
2019-06-27T04:57:30.078Z,18.25
2019-06-27T04:59:48.106Z,18.25
2019-06-27T05:01:35.563Z,18.26
2019-06-27T05:03:37.381Z,18.35
2019-06-27T05:05:39.075Z,18.46
2019-06-27T05:07:41.005Z,18.60
2019-06-27T05:09:42.802Z,18.81
2019-06-27T05:11:44.636Z,18.97
2019-06-27T05:13:46.459Z,19.20
2019-06-27T05:15:48.194Z,19.41
2019-06-27T05:17:49.893Z,19.68
2019-06-27T05:19:51.675Z,19.75
2019-06-27T05:21:53.499Z,19.78
2019-06-27T05:23:55.311Z,19.64
2019-06-27T05:25:57.043Z,19.48
2019-06-27T05:27:58.853Z,19.18
2019-06-27T05:30:09.517Z,19.12
2019-06-27T05:32:04.408Z,18.84
2019-06-27T05:34:06.131Z,18.73
2019-06-27T05:36:07.522Z,18.70
2019-06-27T05:38:09.016Z,18.75
2019-06-27T05:40:10.935Z,18.62
2019-06-27T05:42:12.335Z,18.57
2019-06-27T05:44:13.805Z,18.50
2019-06-27T05:46:15.362Z,18.48
2019-06-27T05:48:16.882Z,18.63
2019-06-27T05:50:18.378Z,18.83
2019-06-27T05:52:19.776Z,18.76
2019-06-27T05:54:21.165Z,19.03
2019-06-27T05:56:22.581Z,19.12
2019-06-27T05:58:23.996Z,19.14
2019-06-27T06:00:28.972Z,19.08
2019-06-27T06:02:28.811Z,19.16
2019-06-27T06:04:30.202Z,19.19
2019-06-27T06:06:31.594Z,20.03
2019-06-27T06:08:33.014Z,21.16
2019-06-27T06:10:34.442Z,22.22
2019-06-27T06:12:35.898Z,22.96
2019-06-27T06:14:37.297Z,23.25
2019-06-27T06:16:38.682Z,24.02
2019-06-27T06:18:40.115Z,24.70
2019-06-27T06:20:41.504Z,24.98
2019-06-27T06:22:42.885Z,25.15
2019-06-27T06:24:44.329Z,25.55
2019-06-27T06:26:45.775Z,25.49
2019-06-27T06:28:47.192Z,25.43
2019-06-27T06:30:48.640Z,24.84
2019-06-27T06:32:50.165Z,25.08
2019-06-27T06:34:51.586Z,24.72
2019-06-27T06:36:52.976Z,25.07
2019-06-27T06:38:54.413Z,25.18
2019-06-27T06:41:09.494Z,25.01
2019-06-27T06:43:10.917Z,24.86
2019-06-27T06:45:13.143Z,24.70
2019-06-27T06:47:14.651Z,25.18
2019-06-27T06:49:16.043Z,25.35
2019-06-27T06:51:17.466Z,25.44
2019-06-27T06:53:18.838Z,25.55
2019-06-27T06:55:20.276Z,25.75
2019-06-27T06:57:21.661Z,25.48
2019-06-27T06:59:23.057Z,25.16
2019-06-27T07:01:24.469Z,25.02
2019-06-27T07:03:25.856Z,25.43
2019-06-27T07:05:27.244Z,25.85
2019-06-27T07:07:28.767Z,25.94
2019-06-27T07:09:30.162Z,25.91
2019-06-27T07:11:31.543Z,26.20
2019-06-27T07:13:33.059Z,25.98
2019-06-27T07:15:34.488Z,25.53
2019-06-27T07:17:36.008Z,25.42
2019-06-27T07:19:37.446Z,25.18
2019-06-27T07:21:38.848Z,25.32
2019-06-27T07:23:40.281Z,25.42
2019-06-27T07:25:42.031Z,25.45
2019-06-27T07:27:43.496Z,25.23
2019-06-27T07:29:44.978Z,25.30
2019-06-27T07:31:46.374Z,25.22
2019-06-27T07:33:47.789Z,26.10
2019-06-27T07:35:49.203Z,26.44
2019-06-27T07:37:50.722Z,25.65
2019-06-27T07:39:52.195Z,25.52
2019-06-27T07:41:53.677Z,25.51
2019-06-27T07:43:55.218Z,26.04
2019-06-27T07:45:56.668Z,26.23
2019-06-27T07:47:58.089Z,26.23
2019-06-27T07:49:59.514Z,25.88
2019-06-27T07:52:00.884Z,25.36
2019-06-27T07:54:02.276Z,26.06
2019-06-27T07:56:03.696Z,26.46
2019-06-27T07:58:05.225Z,26.98
2019-06-27T08:00:08.440Z,26.37
2019-06-27T08:02:09.886Z,26.20
2019-06-27T08:04:11.261Z,26.33
2019-06-27T08:06:12.677Z,25.91
2019-06-27T08:08:14.182Z,26.46
2019-06-27T08:10:15.976Z,26.01
2019-06-27T08:12:17.534Z,26.51
2019-06-27T08:14:19.009Z,26.61
2019-06-27T08:16:20.407Z,26.15
2019-06-27T08:18:21.873Z,26.03
2019-06-27T08:20:23.329Z,26.33
2019-06-27T08:22:24.721Z,26.11
2019-06-27T08:24:26.114Z,25.78
2019-06-27T08:26:27.743Z,25.91
2019-06-27T08:28:29.142Z,25.92
2019-06-27T08:30:30.593Z,26.07
2019-06-27T08:32:31.993Z,25.99
2019-06-27T08:34:33.649Z,26.64
2019-06-27T08:36:35.122Z,26.46
2019-06-27T08:38:36.554Z,26.96
2019-06-27T08:40:37.973Z,27.62
2019-06-27T08:42:39.399Z,27.09
2019-06-27T08:44:40.821Z,26.78
2019-06-27T08:46:42.218Z,27.05
2019-06-27T08:48:43.697Z,26.48
2019-06-27T08:50:45.252Z,26.68
2019-06-27T08:52:46.637Z,26.97
2019-06-27T08:54:48.073Z,26.68
2019-06-27T08:56:49.467Z,26.76
2019-06-27T08:58:50.862Z,27.10
2019-06-27T09:00:52.280Z,27.32
2019-06-27T09:02:53.723Z,27.20
2019-06-27T09:04:55.140Z,27.83
2019-06-27T09:06:56.576Z,27.81
2019-06-27T09:08:57.963Z,27.65
2019-06-27T09:10:59.388Z,27.78
2019-06-27T09:13:00.779Z,27.59
2019-06-27T09:15:06.206Z,27.59
2019-06-27T09:17:08.435Z,27.61
2019-06-27T09:19:09.864Z,27.62
2019-06-27T09:21:11.524Z,27.39
2019-06-27T09:23:12.967Z,27.69
2019-06-27T09:25:14.392Z,26.90
2019-06-27T09:27:16.742Z,27.61
2019-06-27T09:29:18.224Z,27.43
2019-06-27T09:31:19.642Z,27.87
2019-06-27T09:33:21.069Z,27.58
2019-06-27T09:35:22.462Z,27.46
2019-06-27T09:37:23.905Z,27.50
2019-06-27T09:39:27.065Z,28.39
2019-06-27T09:41:28.603Z,28.21
2019-06-27T09:43:30.012Z,28.62
2019-06-27T09:45:31.598Z,28.17
2019-06-27T09:47:33.021Z,27.71
2019-06-27T09:49:34.403Z,28.71
2019-06-27T09:51:35.789Z,28.36
2019-06-27T09:53:37.242Z,28.43
2019-06-27T09:55:38.687Z,28.41
2019-06-27T09:57:40.127Z,28.28
2019-06-27T09:59:41.633Z,28.68
2019-06-27T10:01:43.182Z,28.75
2019-06-27T10:03:44.565Z,28.78
2019-06-27T10:05:45.971Z,28.30
2019-06-27T10:07:47.404Z,28.16
2019-06-27T10:09:48.805Z,28.57
2019-06-27T10:11:53.304Z,28.38
2019-06-27T10:13:53.518Z,28.53
2019-06-27T10:15:54.934Z,28.53
2019-06-27T10:17:56.348Z,29.04
2019-06-27T10:19:57.730Z,28.85
2019-06-27T10:21:59.229Z,28.71
2019-06-27T10:24:00.678Z,28.77
2019-06-27T10:26:02.112Z,29.01
2019-06-27T10:28:03.541Z,29.27
2019-06-27T10:30:06.350Z,29.35
2019-06-27T10:32:07.805Z,29.15
2019-06-27T10:34:09.207Z,29.26
2019-06-27T10:36:10.634Z,29.24
2019-06-27T10:38:12.025Z,29.36
2019-06-27T10:40:13.822Z,29.37
2019-06-27T10:42:15.260Z,29.00
2019-06-27T10:44:16.651Z,29.19
2019-06-27T10:46:18.055Z,29.07
2019-06-27T10:48:19.475Z,28.90
2019-06-27T10:50:20.894Z,28.03
2019-06-27T10:52:22.300Z,28.70
2019-06-27T10:54:23.690Z,29.40
2019-06-27T10:56:25.126Z,29.91
2019-06-27T10:58:26.551Z,30.11
2019-06-27T11:00:27.998Z,29.73
2019-06-27T11:02:29.482Z,29.38
2019-06-27T11:04:30.878Z,29.76
2019-06-27T11:06:32.317Z,29.82
2019-06-27T11:08:33.701Z,30.30
2019-06-27T11:10:35.084Z,30.03
2019-06-27T11:12:36.500Z,30.37
2019-06-27T11:14:37.871Z,30.40
2019-06-27T11:16:39.264Z,30.67
2019-06-27T11:18:40.743Z,30.15
2019-06-27T11:20:42.117Z,30.43
2019-06-27T11:22:43.645Z,30.33
2019-06-27T11:24:45.053Z,30.43
2019-06-27T11:26:47.139Z,30.96
2019-06-27T11:28:49.341Z,30.84
2019-06-27T11:30:50.770Z,30.96
2019-06-27T11:32:52.179Z,30.53
2019-06-27T11:34:53.730Z,30.90
2019-06-27T11:36:55.127Z,31.21
2019-06-27T11:38:56.631Z,31.23
2019-06-27T11:40:58.059Z,31.25
2019-06-27T11:42:59.492Z,31.31
2019-06-27T11:45:00.901Z,31.42
2019-06-27T11:47:02.349Z,31.64
2019-06-27T11:49:03.788Z,31.31
2019-06-27T11:51:05.218Z,31.53
2019-06-27T11:53:06.603Z,31.32
2019-06-27T11:55:08.198Z,30.86
2019-06-27T11:57:09.611Z,30.42
2019-06-27T11:59:11.003Z,31.17
2019-06-27T12:01:12.444Z,31.38
2019-06-27T12:03:13.845Z,31.73
2019-06-27T12:05:15.418Z,31.90
2019-06-27T12:07:16.864Z,31.61
2019-06-27T12:09:18.244Z,32.08
2019-06-27T12:11:19.634Z,32.25
2019-06-27T12:13:21.176Z,31.95
2019-06-27T12:15:22.606Z,31.92
2019-06-27T12:17:24.018Z,31.64
2019-06-27T12:19:25.455Z,31.59
2019-06-27T12:21:26.913Z,31.75
2019-06-27T12:23:28.318Z,31.23
2019-06-27T12:25:29.754Z,31.25
2019-06-27T12:27:31.393Z,31.36
2019-06-27T12:29:32.805Z,31.40
2019-06-27T12:31:34.180Z,31.48
2019-06-27T12:33:35.672Z,31.78
2019-06-27T12:35:37.206Z,31.95
2019-06-27T12:37:39.848Z,31.81
2019-06-27T12:39:41.525Z,31.92
2019-06-27T12:41:42.928Z,31.53
2019-06-27T12:43:44.313Z,31.97
2019-06-27T12:45:45.705Z,31.87
2019-06-27T12:47:47.141Z,31.98
2019-06-27T12:50:01.193Z,31.36
2019-06-27T12:51:51.822Z,31.60
2019-06-27T12:53:55.662Z,31.23
2019-06-27T12:55:56.841Z,31.73
2019-06-27T12:57:58.228Z,31.93
2019-06-27T12:59:59.630Z,31.97
2019-06-27T13:02:01.074Z,31.98
2019-06-27T13:04:02.449Z,31.78
2019-06-27T13:06:03.849Z,31.98
2019-06-27T13:08:05.289Z,32.47
2019-06-27T13:10:07.147Z,32.25
2019-06-27T13:12:08.546Z,32.28
2019-06-27T13:14:09.944Z,32.63
2019-06-27T13:16:11.378Z,31.81
2019-06-27T13:18:12.830Z,31.85
2019-06-27T13:20:14.565Z,32.00
2019-06-27T13:22:16.024Z,31.84
2019-06-27T13:24:17.529Z,31.92
2019-06-27T13:26:19.027Z,31.73
2019-06-27T13:28:20.482Z,31.81
2019-06-27T13:30:22.012Z,31.44
2019-06-27T13:32:25.434Z,30.82
2019-06-27T13:34:39.957Z,31.10
2019-06-27T13:36:33.031Z,31.16
2019-06-27T13:38:33.395Z,31.60
2019-06-27T13:40:35.026Z,31.86
2019-06-27T13:42:38.420Z,31.68
2019-06-27T13:44:39.735Z,31.41
2019-06-27T13:46:41.296Z,31.32
2019-06-27T13:48:42.973Z,31.12
2019-06-27T13:50:44.366Z,31.09
2019-06-27T13:52:45.909Z,31.18
2019-06-27T13:54:47.302Z,30.97
2019-06-27T13:56:48.782Z,30.91
2019-06-27T13:58:50.311Z,31.03
2019-06-27T14:00:51.739Z,31.18
2019-06-27T14:02:53.153Z,30.95
2019-06-27T14:04:57.472Z,30.84
2019-06-27T14:06:57.862Z,30.74
2019-06-27T14:08:59.288Z,30.65
2019-06-27T14:11:00.670Z,30.41
2019-06-27T14:13:02.206Z,30.41
2019-06-27T14:15:07.580Z,30.46
2019-06-27T14:17:08.968Z,30.48
2019-06-27T14:19:10.395Z,30.59
2019-06-27T14:21:11.982Z,30.37
2019-06-27T14:23:13.343Z,30.42
2019-06-27T14:25:15.040Z,30.38
2019-06-27T14:27:16.463Z,30.54
2019-06-27T14:29:17.897Z,30.43
2019-06-27T14:31:19.289Z,30.56
2019-06-27T14:33:20.686Z,30.76
2019-06-27T14:35:22.153Z,30.74
2019-06-27T14:37:23.534Z,30.43
2019-06-27T14:39:24.960Z,30.30
2019-06-27T14:41:26.381Z,30.06
2019-06-27T14:43:27.794Z,29.86
2019-06-27T14:45:29.253Z,29.84
2019-06-27T14:47:30.651Z,29.64
2019-06-27T14:49:32.026Z,29.58
2019-06-27T14:51:33.467Z,29.50
2019-06-27T14:53:34.991Z,29.58
2019-06-27T14:55:36.501Z,29.53
2019-06-27T14:57:38.033Z,29.50
2019-06-27T14:59:39.600Z,29.32
2019-06-27T15:01:41.044Z,29.51
2019-06-27T15:03:42.496Z,29.33
2019-06-27T15:05:44.012Z,29.49
2019-06-27T15:07:45.420Z,29.58
2019-06-27T15:09:46.871Z,29.63
2019-06-27T15:11:48.262Z,29.52
2019-06-27T15:13:49.652Z,29.16
2019-06-27T15:15:51.068Z,29.28
2019-06-27T15:17:52.509Z,29.22
2019-06-27T15:19:53.939Z,29.00
2019-06-27T15:21:55.407Z,29.06
2019-06-27T15:23:56.809Z,29.16
2019-06-27T15:25:58.209Z,29.24
2019-06-27T15:27:59.747Z,29.02
2019-06-27T15:30:01.222Z,29.09
2019-06-27T15:32:02.799Z,28.98
2019-06-27T15:34:04.202Z,29.00
2019-06-27T15:36:05.722Z,28.98
2019-06-27T15:38:07.102Z,28.79
2019-06-27T15:40:08.945Z,28.63
2019-06-27T15:42:10.408Z,28.44
2019-06-27T15:44:11.805Z,28.48
2019-06-27T15:46:13.264Z,28.32
2019-06-27T15:48:14.699Z,28.31
2019-06-27T15:50:16.086Z,28.23
2019-06-27T15:52:17.498Z,28.21
2019-06-27T15:54:19.024Z,28.28
2019-06-27T15:56:20.523Z,28.15
2019-06-27T15:58:22.002Z,28.15
2019-06-27T16:00:23.638Z,28.30
2019-06-27T16:02:25.266Z,28.30
2019-06-27T16:04:33.845Z,28.24
2019-06-27T16:06:30.174Z,28.09
2019-06-27T16:08:31.919Z,28.09
2019-06-27T16:10:33.447Z,28.04
2019-06-27T16:12:36.256Z,27.87
2019-06-27T16:14:37.698Z,27.97
2019-06-27T16:16:39.085Z,27.76
2019-06-27T16:18:41.064Z,27.88
2019-06-27T16:20:42.647Z,27.85
2019-06-27T16:22:44.153Z,27.95
2019-06-27T16:24:45.605Z,27.79
2019-06-27T16:26:47.085Z,27.65
2019-06-27T16:28:48.596Z,27.81
2019-06-27T16:30:50.026Z,27.90
2019-06-27T16:32:51.387Z,27.84
2019-06-27T16:34:52.818Z,27.68
2019-06-27T16:36:54.258Z,27.57
2019-06-27T16:38:55.639Z,27.60
2019-06-27T16:40:57.044Z,27.38
2019-06-27T16:42:58.483Z,27.40
2019-06-27T16:44:59.873Z,27.41
2019-06-27T16:47:01.337Z,27.47
2019-06-27T16:49:02.805Z,27.50
2019-06-27T16:51:04.272Z,27.28
2019-06-27T16:53:05.705Z,27.07
2019-06-27T16:55:07.352Z,27.17
2019-06-27T16:57:08.780Z,27.20
2019-06-27T16:59:10.232Z,27.11
2019-06-27T17:01:11.650Z,27.02
2019-06-27T17:03:13.042Z,27.00
2019-06-27T17:05:14.656Z,26.94
2019-06-27T17:07:16.036Z,26.89
2019-06-27T17:09:17.452Z,26.92
2019-06-27T17:11:18.930Z,26.83
2019-06-27T17:13:20.317Z,26.71
2019-06-27T17:15:21.721Z,26.79
2019-06-27T17:17:23.266Z,26.74
2019-06-27T17:19:24.865Z,26.64
2019-06-27T17:21:26.273Z,26.64
2019-06-27T17:23:27.686Z,26.60
2019-06-27T17:25:29.114Z,26.73
2019-06-27T17:27:30.504Z,26.70
2019-06-27T17:29:32.028Z,26.67
2019-06-27T17:31:33.423Z,26.53
2019-06-27T17:33:34.840Z,26.29
2019-06-27T17:35:36.245Z,26.18
2019-06-27T17:37:37.626Z,26.17
2019-06-27T17:39:39.048Z,25.96
2019-06-27T17:41:40.486Z,26.03
2019-06-27T17:43:41.913Z,25.93
2019-06-27T17:45:43.306Z,25.97
2019-06-27T17:47:44.735Z,26.01
2019-06-27T17:49:49.079Z,25.69
2019-06-27T17:51:49.447Z,25.69
2019-06-27T17:53:50.866Z,25.64
2019-06-27T17:55:54.174Z,25.64
2019-06-27T17:57:55.625Z,25.48
2019-06-27T17:59:57.040Z,25.27
2019-06-27T18:01:58.643Z,25.50
2019-06-27T18:04:00.505Z,25.48
2019-06-27T18:06:01.972Z,25.28
2019-06-27T18:08:03.447Z,25.12
2019-06-27T18:10:05.455Z,25.14
2019-06-27T18:12:06.855Z,25.14
2019-06-27T18:14:08.314Z,24.88
2019-06-27T18:16:09.745Z,24.86
2019-06-27T18:18:11.147Z,24.79
2019-06-27T18:20:12.856Z,24.77
2019-06-27T18:22:15.381Z,24.79
2019-06-27T18:24:16.838Z,24.75
2019-06-27T18:26:19.462Z,24.62
2019-06-27T18:28:20.896Z,24.60
2019-06-27T18:30:22.413Z,24.58
2019-06-27T18:32:23.816Z,24.62
2019-06-27T18:34:25.247Z,24.55
2019-06-27T18:36:26.625Z,24.48
2019-06-27T18:38:28.011Z,24.44
2019-06-27T18:40:29.459Z,24.24
2019-06-27T18:42:30.904Z,24.02
2019-06-27T18:44:32.271Z,24.04
2019-06-27T18:46:33.806Z,23.82
2019-06-27T18:48:35.275Z,23.84
2019-06-27T18:50:36.690Z,23.87
2019-06-27T18:52:38.103Z,23.70
2019-06-27T18:54:39.481Z,23.53
2019-06-27T18:56:40.873Z,23.51
2019-06-27T18:58:42.299Z,23.41
2019-06-27T19:00:43.684Z,23.37
2019-06-27T19:02:45.142Z,23.35
2019-06-27T19:04:46.559Z,23.29
2019-06-27T19:06:47.944Z,23.20
2019-06-27T19:08:49.331Z,23.17
2019-06-27T19:10:50.748Z,22.99
2019-06-27T19:12:52.136Z,22.89
2019-06-27T19:14:53.551Z,22.91
2019-06-27T19:16:54.972Z,22.65
2019-06-27T19:18:58.300Z,22.67
2019-06-27T19:21:01.670Z,22.67
2019-06-27T19:23:10.890Z,22.64
2019-06-27T19:25:14.162Z,22.45
2019-06-27T19:27:15.541Z,22.44
2019-06-27T19:29:16.949Z,22.52
2019-06-27T19:31:18.461Z,22.44
2019-06-27T19:33:19.931Z,22.38
2019-06-27T19:35:21.396Z,22.22
2019-06-27T19:37:22.880Z,22.21
2019-06-27T19:39:24.259Z,21.93
2019-06-27T19:41:25.643Z,21.92
2019-06-27T19:43:28.392Z,21.87
2019-06-27T19:45:29.989Z,21.87
2019-06-27T19:47:31.385Z,21.87
2019-06-27T19:49:32.830Z,21.79
2019-06-27T19:51:34.367Z,21.74
2019-06-27T19:53:35.750Z,21.71
2019-06-27T19:55:37.666Z,21.71
2019-06-27T19:57:39.200Z,21.71
2019-06-27T19:59:40.594Z,21.71
2019-06-27T20:01:41.980Z,21.53
2019-06-27T20:03:43.401Z,21.52
2019-06-27T20:05:44.832Z,21.49
2019-06-27T20:07:46.367Z,21.35
2019-06-27T20:09:47.728Z,21.35
2019-06-27T20:11:49.141Z,21.38
2019-06-27T20:13:50.604Z,21.24
2019-06-27T20:15:52.031Z,21.09
2019-06-27T20:17:53.415Z,20.96
2019-06-27T20:19:54.806Z,20.99
2019-06-27T20:21:56.241Z,20.78
2019-06-27T20:23:57.639Z,21.00
2019-06-27T20:25:59.024Z,20.83
2019-06-27T20:28:00.447Z,20.88
2019-06-27T20:30:02.451Z,20.85
2019-06-27T20:32:03.842Z,20.88
2019-06-27T20:34:05.272Z,20.72
2019-06-27T20:36:06.637Z,20.82
2019-06-27T20:38:08.087Z,20.76
2019-06-27T20:40:10.800Z,20.75
2019-06-27T20:42:12.290Z,20.58
2019-06-27T20:44:13.757Z,20.57
2019-06-27T20:46:15.138Z,20.52
2019-06-27T20:48:16.558Z,20.50
2019-06-27T20:50:18.583Z,20.43
2019-06-27T20:52:20.011Z,20.31
2019-06-27T20:54:21.409Z,20.37
2019-06-27T20:56:22.776Z,20.37
2019-06-27T20:58:24.189Z,20.18
2019-06-27T21:00:25.692Z,20.19
2019-06-27T21:02:27.182Z,20.17
2019-06-27T21:04:28.591Z,20.26
2019-06-27T21:06:29.972Z,20.14
2019-06-27T21:08:31.351Z,20.03
2019-06-27T21:10:32.859Z,19.97
2019-06-27T21:12:34.241Z,19.96
2019-06-27T21:14:35.663Z,19.78
2019-06-27T21:16:37.043Z,19.69
2019-06-27T21:18:38.431Z,19.71
2019-06-27T21:20:39.860Z,19.68
2019-06-27T21:22:41.275Z,19.72
2019-06-27T21:24:42.752Z,19.80
2019-06-27T21:26:44.126Z,19.74
2019-06-27T21:28:45.557Z,19.55
2019-06-27T21:30:46.951Z,19.63
2019-06-27T21:32:48.720Z,19.54
2019-06-27T21:34:50.297Z,19.44
2019-06-27T21:36:51.699Z,19.34
2019-06-27T21:39:06.673Z,19.16
2019-06-27T21:40:56.496Z,19.33
2019-06-27T21:42:57.894Z,19.01
2019-06-27T21:44:59.324Z,19.16
2019-06-27T21:47:00.738Z,19.09
2019-06-27T21:49:02.139Z,19.07
2019-06-27T21:51:03.640Z,19.05
2019-06-27T21:53:06.979Z,18.98
2019-06-27T21:55:08.470Z,18.95
2019-06-27T21:57:09.876Z,19.02
2019-06-27T21:59:11.362Z,18.96
2019-06-27T22:01:12.977Z,18.90
2019-06-27T22:03:14.808Z,18.80
2019-06-27T22:05:16.597Z,18.75
2019-06-27T22:07:18.079Z,18.91
2019-06-27T22:09:25.064Z,18.92
2019-06-27T22:11:22.812Z,18.77
2019-06-27T22:13:24.199Z,18.63
2019-06-27T22:15:25.655Z,18.56
2019-06-27T22:17:27.173Z,18.48
2019-06-27T22:19:28.594Z,18.47
2019-06-27T22:21:29.989Z,18.45
2019-06-27T22:23:31.507Z,18.42
2019-06-27T22:25:40.534Z,18.33
2019-06-27T22:27:36.208Z,18.42
2019-06-27T22:29:37.603Z,18.38
2019-06-27T22:31:39.002Z,18.42
2019-06-27T22:33:40.390Z,18.34
2019-06-27T22:35:41.812Z,18.15
2019-06-27T22:38:02.023Z,18.13
2019-06-27T22:40:26.123Z,18.02
2019-06-27T22:42:46.442Z,18.14
2019-06-27T22:45:06.260Z,18.03
2019-06-27T22:47:26.029Z,17.99
2019-06-27T22:49:27.315Z,17.95
2019-06-27T22:51:40.119Z,17.85
2019-06-27T22:53:46.018Z,17.82
2019-06-27T22:55:47.516Z,17.86
2019-06-27T22:57:48.938Z,17.92
2019-06-27T22:59:50.313Z,17.86
2019-06-27T23:01:51.754Z,17.86
2019-06-27T23:03:53.129Z,17.86
2019-06-27T23:05:54.574Z,17.82
2019-06-27T23:07:55.982Z,17.74
2019-06-27T23:09:57.713Z,17.55
2019-06-27T23:11:59.211Z,17.59
2019-06-27T23:14:00.603Z,17.65
2019-06-27T23:16:02.189Z,17.65
2019-06-27T23:18:03.666Z,17.73
2019-06-27T23:20:05.776Z,17.66
2019-06-27T23:22:07.161Z,17.47
2019-06-27T23:24:08.589Z,17.49
2019-06-27T23:26:10.007Z,17.43
2019-06-27T23:28:11.471Z,17.38
2019-06-27T23:30:13.100Z,17.38
2019-06-27T23:32:14.511Z,17.49
2019-06-27T23:34:15.901Z,17.45
2019-06-27T23:36:17.391Z,17.41
2019-06-27T23:38:18.846Z,17.42
2019-06-27T23:40:20.432Z,17.33
2019-06-27T23:42:21.823Z,17.32
2019-06-27T23:44:23.262Z,17.28
2019-06-27T23:46:43.343Z,17.19
2019-06-27T23:48:44.743Z,17.14
2019-06-27T23:50:46.148Z,17.06
2019-06-27T23:52:47.641Z,16.90
2019-06-27T23:54:49.084Z,16.91
2019-06-27T23:56:50.479Z,16.87
2019-06-27T23:58:51.919Z,16.85
